Time;durP1;ratioP1;P1;durP2;ratioP2;P2;SDS_P1;SDS_P2;PMS_P1;PMS_P2;Temp;Humidity;BMP_temperature;BMP_pressure;BME280_temperature;BME280_humidity;BME280_pressure;Samples;Min_cycle;Max_cycle;Signal;HPM_P1;HPM_P2
2022/08/01 00:00:25;;;;;;;4.65;3.38;;;20.40;61.40;;;;;;5049524;28;20459;-59
2022/08/01 00:02:51;;;;;;;3.72;2.80;;;20.40;60.60;;;;;;5066195;28;20083;-60
2022/08/01 00:05:17;;;;;;;3.05;2.70;;;20.40;60.00;;;;;;5049445;28;20033;-59
2022/08/01 00:07:44;;;;;;;4.40;3.03;;;20.30;59.60;;;;;;5065400;28;20385;-59
2022/08/01 00:10:12;;;;;;;3.45;2.60;;;20.40;59.30;;;;;;5049098;28;20033;-60
2022/08/01 00:12:38;;;;;;;3.08;2.22;;;20.40;59.30;;;;;;5066500;28;20109;-58
2022/08/01 00:15:05;;;;;;;2.80;2.60;;;20.40;58.50;;;;;;5045662;28;20690;-59
2022/08/01 00:17:31;;;;;;;2.83;2.47;;;20.30;57.90;;;;;;5066469;28;20546;-59
2022/08/01 00:19:56;;;;;;;5.18;2.70;;;20.30;57.50;;;;;;5068697;28;20032;-59
2022/08/01 00:22:21;;;;;;;3.25;2.55;;;20.30;57.00;;;;;;5051819;28;20054;-59
2022/08/01 00:24:47;;;;;;;2.70;2.50;;;20.30;56.50;;;;;;5068559;28;20519;-59
2022/08/01 00:27:12;;;;;;;2.40;2.20;;;20.30;56.20;;;;;;5048956;28;20028;-59
2022/08/01 00:29:38;;;;;;;2.67;1.90;;;20.30;55.80;;;;;;5068657;28;20039;-58
2022/08/01 00:32:04;;;;;;;2.42;2.17;;;20.30;55.60;;;;;;5048877;28;20033;-59
2022/08/01 00:34:29;;;;;;;2.35;1.80;;;20.30;55.10;;;;;;5068413;28;20021;-59
2022/08/01 00:36:54;;;;;;;2.42;2.05;;;20.40;54.90;;;;;;5047497;28;20029;-59
2022/08/01 00:39:20;;;;;;;2.58;2.20;;;20.30;54.90;;;;;;5068433;28;20067;-60
2022/08/01 00:41:45;;;;;;;3.30;2.38;;;20.30;54.70;;;;;;5048823;28;20550;-59
2022/08/01 00:44:11;;;;;;;2.80;2.08;;;20.30;54.60;;;;;;5045483;28;20044;-59
2022/08/01 00:46:37;;;;;;;2.67;2.22;;;20.30;54.10;;;;;;5067553;28;20528;-60
2022/08/01 00:49:02;;;;;;;2.33;2.10;;;20.40;53.90;;;;;;5048272;28;20052;-59
2022/08/01 00:51:28;;;;;;;3.65;2.78;;;20.30;53.80;;;;;;5068513;28;20032;-60
2022/08/01 00:53:54;;;;;;;2.85;2.58;;;20.40;53.80;;;;;;5046889;28;20022;-59
2022/08/01 00:56:23;;;;;;;3.50;2.35;;;20.40;53.70;;;;;;5067498;28;20028;-59
2022/08/01 00:58:49;;;;;;;2.55;2.35;;;20.30;53.40;;;;;;5046657;28;20488;-59
2022/08/01 01:01:14;;;;;;;3.15;2.58;;;20.30;53.30;;;;;;5066070;28;20040;-59
2022/08/01 01:03:40;;;;;;;2.95;2.60;;;20.30;53.50;;;;;;5046874;28;20103;-59
2022/08/01 01:06:24;;;;;;;3.50;2.63;;;20.30;54.10;;;;;;5066045;28;20025;-59
2022/08/01 01:09:16;;;;;;;2.95;2.47;;;20.30;55.40;;;;;;5041791;28;20044;-59
2022/08/01 01:11:49;;;;;;;3.00;2.50;;;20.30;55.10;;;;;;5028173;28;20025;-59
2022/08/01 01:14:33;;;;;;;3.00;2.70;;;20.30;55.00;;;;;;5048437;28;20408;-60
2022/08/01 01:17:00;;;;;;;3.97;3.20;;;20.30;55.40;;;;;;5028371;28;20033;-59
2022/08/01 01:19:30;;;;;;;5.10;2.90;;;20.20;54.80;;;;;;5031472;28;20025;-60
2022/08/01 01:22:21;;;;;;;3.67;2.85;;;20.30;55.50;;;;;;5071680;28;20024;-59
2022/08/01 01:25:09;;;;;;;7.22;3.83;;;20.30;58.30;;;;;;5071901;28;20040;-59
2022/08/01 01:28:12;;;;;;;3.85;3.33;;;20.20;59.90;;;;;;5039040;28;20207;-60
2022/08/01 01:30:40;;;;;;;6.28;3.65;;;20.20;65.20;;;;;;5031930;28;20040;-59
2022/08/01 01:33:10;;;;;;;5.88;3.20;;;20.10;67.30;;;;;;5069193;28;20037;-60
2022/08/01 01:35:38;;;;;;;4.45;2.72;;;20.10;64.60;;;;;;5051645;28;20025;-60
2022/08/01 01:38:22;;;;;;;3.33;2.90;;;20.10;64.60;;;;;;5069463;28;20086;-59
2022/08/01 01:40:51;;;;;;;3.97;2.83;;;20.10;71.50;;;;;;5051445;28;20115;-59
2022/08/01 01:43:18;;;;;;;5.43;3.13;;;20.00;65.40;;;;;;5069180;28;20164;-60
2022/08/01 01:45:46;;;;;;;3.38;2.63;;;20.00;66.30;;;;;;5051714;28;20025;-59
2022/08/01 01:48:18;;;;;;;3.05;2.53;;;20.00;65.80;;;;;;5069062;28;20043;-60
2022/08/01 01:50:46;;;;;;;2.80;2.60;;;20.00;65.60;;;;;;5051197;28;20055;-59
2022/08/01 01:53:15;;;;;;;5.75;2.60;;;20.00;66.30;;;;;;5069261;28;20032;-60
2022/08/01 01:55:43;;;;;;;3.00;2.70;;;19.90;66.10;;;;;;5051223;28;20056;-59
2022/08/01 01:58:11;;;;;;;3.90;2.83;;;20.00;66.30;;;;;;5068938;28;20116;-59
2022/08/01 02:00:38;;;;;;;3.30;3.00;;;20.00;65.80;;;;;;5051233;28;20580;-60
2022/08/01 02:03:06;;;;;;;2.17;2.03;;;19.90;67.10;;;;;;5068655;28;20067;-59
2022/08/01 02:05:34;;;;;;;2.40;2.20;;;19.90;66.30;;;;;;5051383;28;20060;-59
2022/08/01 02:08:02;;;;;;;4.10;2.38;;;19.90;66.70;;;;;;5068623;28;20126;-59
2022/08/01 02:10:29;;;;;;;3.55;2.25;;;19.90;67.80;;;;;;5071047;28;20221;-59
2022/08/01 02:12:57;;;;;;;2.70;2.50;;;19.90;67.90;;;;;;5055563;28;20029;-60
2022/08/01 02:15:23;;;;;;;2.42;2.22;;;19.90;67.90;;;;;;5064584;28;20436;-59
2022/08/01 02:17:50;;;;;;;3.10;2.80;;;19.80;69.10;;;;;;5054375;28;20086;-59
2022/08/01 02:20:16;;;;;;;2.90;2.40;;;19.80;69.10;;;;;;5070811;28;20031;-59
2022/08/01 02:22:52;;;;;;;3.38;2.75;;;19.80;70.00;;;;;;5053256;28;20688;-59
2022/08/01 02:25:39;;;;;;;2.75;2.55;;;19.80;70.40;;;;;;5070845;28;20070;-60
2022/08/01 02:28:07;;;;;;;4.10;2.45;;;19.80;73.30;;;;;;5042770;28;20037;-59
2022/08/01 02:30:35;;;;;;;3.80;2.70;;;19.70;71.80;;;;;;5069858;28;20023;-60
2022/08/01 02:33:34;;;;;;;5.13;2.80;;;19.70;72.50;;;;;;5055240;28;20062;-60
2022/08/01 02:36:02;;;;;;;2.50;2.30;;;19.70;75.60;;;;;;5070524;28;20032;-59
2022/08/01 02:38:32;;;;;;;6.15;2.80;;;19.60;73.80;;;;;;5058641;28;20021;-60
2022/08/01 02:41:02;;;;;;;2.53;2.30;;;19.60;74.60;;;;;;5050182;28;20649;-59
2022/08/01 02:43:30;;;;;;;2.53;2.33;;;19.60;74.90;;;;;;5048181;28;20492;-59
2022/08/01 02:46:00;;;;;;;2.40;2.20;;;19.60;75.60;;;;;;5050346;28;20563;-59
2022/08/01 02:48:26;;;;;;;3.60;2.38;;;19.60;76.60;;;;;;5068582;28;20055;-60
2022/08/01 02:50:54;;;;;;;4.40;2.67;;;19.50;76.90;;;;;;5050441;28;20144;-60
2022/08/01 02:53:23;;;;;;;2.78;2.22;;;19.50;77.50;;;;;;5067992;28;20112;-59
2022/08/01 02:55:50;;;;;;;3.10;2.55;;;19.50;77.50;;;;;;5050246;28;20047;-59
2022/08/01 02:58:18;;;;;;;4.25;2.08;;;19.50;78.90;;;;;;5067471;28;20108;-60
2022/08/01 03:00:45;;;;;;;2.92;2.70;;;19.40;79.70;;;;;;5050214;28;20029;-59
2022/08/01 03:03:13;;;;;;;3.20;2.90;;;19.40;80.20;;;;;;5067598;28;20032;-59
2022/08/01 03:05:40;;;;;;;4.22;3.40;;;19.30;81.00;;;;;;5069879;28;20444;-59
2022/08/01 03:08:07;;;;;;;6.25;3.38;;;19.30;82.30;;;;;;5054165;28;20043;-60
2022/08/01 03:10:35;;;;;;;2.92;2.65;;;19.30;85.70;;;;;;5070027;28;20055;-60
2022/08/01 03:13:03;;;;;;;3.03;2.65;;;19.30;84.10;;;;;;5053289;28;20489;-60
2022/08/01 03:15:33;;;;;;;3.42;2.47;;;19.30;84.90;;;;;;5063352;28;20404;-60
2022/08/01 03:18:00;;;;;;;2.50;2.30;;;19.30;85.60;;;;;;5052325;28;20435;-60
2022/08/01 03:20:27;;;;;;;4.65;2.53;;;19.30;84.90;;;;;;5069646;28;20567;-59
2022/08/01 03:22:54;;;;;;;2.85;2.65;;;19.30;85.70;;;;;;5051791;28;20036;-59
2022/08/01 03:25:21;;;;;;;2.92;2.55;;;19.30;87.80;;;;;;5069592;28;20078;-59
2022/08/01 03:27:53;;;;;;;4.60;2.88;;;19.30;86.20;;;;;;5050786;28;20040;-59
2022/08/01 03:30:20;;;;;;;4.18;3.20;;;19.20;86.20;;;;;;5069392;28;20028;-59
2022/08/01 03:32:46;;;;;;;2.75;2.55;;;19.20;86.20;;;;;;5050484;28;20033;-59
2022/08/01 03:35:11;;;;;;;4.57;2.75;;;19.10;86.30;;;;;;5068088;28;20493;-60
2022/08/01 03:37:44;;;;;;;3.05;2.80;;;19.10;87.10;;;;;;5049123;28;20532;-59
2022/08/01 03:40:18;;;;;;;3.15;2.70;;;19.00;88.90;;;;;;5069232;28;20159;-59
2022/08/01 03:42:47;;;;;;;4.65;2.33;;;19.00;87.80;;;;;;5031369;28;20030;-59
2022/08/01 03:45:24;;;;;;;2.88;2.67;;;19.00;88.70;;;;;;5069165;28;20032;-59
2022/08/01 03:47:59;;;;;;;3.65;3.35;;;18.90;89.00;;;;;;5032642;28;20044;-59
2022/08/01 03:50:26;;;;;;;3.38;2.65;;;18.90;89.90;;;;;;5054700;28;20045;-59
2022/08/01 03:52:54;;;;;;;3.25;2.95;;;18.90;90.20;;;;;;5066428;28;20485;-60
2022/08/01 03:55:21;;;;;;;3.17;2.78;;;18.90;90.50;;;;;;5068997;28;20423;-59
2022/08/01 03:57:48;;;;;;;3.60;3.30;;;18.90;90.70;;;;;;5049242;28;20036;-59
2022/08/01 04:00:18;;;;;;;3.10;2.85;;;18.90;90.70;;;;;;5068922;28;20086;-59
2022/08/01 04:02:45;;;;;;;3.30;3.00;;;19.00;90.60;;;;;;5048469;28;20059;-59
2022/08/01 04:05:11;;;;;;;3.50;3.10;;;19.00;90.50;;;;;;5068920;28;20504;-59
2022/08/01 04:07:36;;;;;;;3.30;3.00;;;19.00;90.60;;;;;;5047991;28;20037;-59
2022/08/01 04:10:03;;;;;;;3.38;3.08;;;19.00;90.60;;;;;;5068697;28;20030;-59
2022/08/01 04:12:29;;;;;;;3.47;3.17;;;19.00;90.70;;;;;;5049050;28;20033;-59
2022/08/01 04:14:54;;;;;;;4.85;3.22;;;19.10;90.90;;;;;;5040678;28;20028;-60
2022/08/01 04:17:19;;;;;;;4.78;2.88;;;19.20;91.00;;;;;;5067953;28;20036;-60
2022/08/01 04:19:45;;;;;;;3.88;3.35;;;19.30;90.90;;;;;;5045937;28;20025;-60
2022/08/01 04:22:13;;;;;;;3.30;3.00;;;19.60;90.50;;;;;;5067775;28;20028;-59
2022/08/01 04:24:40;;;;;;;3.10;2.75;;;19.90;90.10;;;;;;5046825;28;20037;-59
2022/08/01 04:27:11;;;;;;;3.15;2.75;;;20.70;86.20;;;;;;5067746;28;20036;-59
2022/08/01 04:29:38;;;;;;;3.15;2.85;;;21.40;81.80;;;;;;5043039;28;20032;-60
2022/08/01 04:32:07;;;;;;;2.95;2.75;;;21.60;79.80;;;;;;5067991;28;20093;-59
2022/08/01 04:34:33;;;;;;;3.17;2.88;;;21.60;80.00;;;;;;5046558;28;20317;-60
2022/08/01 04:37:00;;;;;;;2.75;2.53;;;21.50;79.80;;;;;;5067617;28;20040;-59
2022/08/01 04:39:30;;;;;;;5.20;3.78;;;21.40;79.80;;;;;;5046925;28;20032;-59
2022/08/01 04:41:58;;;;;;;3.08;2.88;;;21.30;79.90;;;;;;5028213;28;20056;-59
2022/08/01 04:44:24;;;;;;;3.22;2.92;;;21.20;79.90;;;;;;5051350;28;20112;-60
2022/08/01 04:46:54;;;;;;;4.95;3.75;;;21.20;80.00;;;;;;5067466;28;20519;-59
2022/08/01 04:49:20;;;;;;;4.93;3.40;;;21.10;80.00;;;;;;5051365;28;20144;-59
2022/08/01 04:51:57;;;;;;;3.45;3.15;;;21.10;80.00;;;;;;5068090;28;20036;-59
2022/08/01 04:54:24;;;;;;;4.00;2.80;;;21.10;79.70;;;;;;5045997;28;20397;-59
2022/08/01 04:56:50;;;;;;;3.40;2.75;;;21.10;79.30;;;;;;5074160;28;20031;-59
2022/08/01 05:02:00;;;;;;;4.43;2.90;;;21.10;78.60;;;;;;5034882;28;20263;-59
2022/08/01 05:04:25;;;;;;;4.80;2.90;;;21.20;78.50;;;;;;5057726;28;20224;-59
2022/08/01 05:06:50;;;;;;;5.75;3.10;;;21.30;77.80;;;;;;5073848;28;20496;-60
2022/08/01 05:09:16;;;;;;;3.78;2.88;;;21.40;77.10;;;;;;5053395;28;20108;-60
2022/08/01 05:11:41;;;;;;;3.38;2.63;;;21.40;76.50;;;;;;5073847;28;20029;-60
2022/08/01 05:14:07;;;;;;;2.90;2.65;;;21.40;76.10;;;;;;5057893;28;20037;-60
2022/08/01 05:16:32;;;;;;;3.75;2.78;;;21.40;75.80;;;;;;5055068;28;20037;-60
2022/08/01 05:18:58;;;;;;;2.83;2.60;;;21.40;75.30;;;;;;5071898;28;20052;-59
2022/08/01 05:21:23;;;;;;;3.55;2.50;;;21.40;75.30;;;;;;5055107;28;20508;-60
2022/08/01 05:23:48;;;;;;;2.65;2.42;;;21.30;75.10;;;;;;5071868;28;20035;-59
2022/08/01 05:26:14;;;;;;;3.10;2.80;;;21.30;75.70;;;;;;5054984;28;20033;-60
2022/08/01 05:28:39;;;;;;;3.50;2.92;;;21.30;75.00;;;;;;5071779;28;20028;-59
2022/08/01 05:31:05;;;;;;;3.65;2.67;;;21.30;75.00;;;;;;5074636;28;20797;-60
2022/08/01 05:33:30;;;;;;;2.60;2.40;;;21.40;75.00;;;;;;5058546;28;20081;-60
2022/08/01 05:35:56;;;;;;;3.42;2.63;;;21.50;74.60;;;;;;5074468;28;20055;-60
2022/08/01 05:38:21;;;;;;;4.65;3.20;;;21.50;74.20;;;;;;5057149;28;20035;-59
2022/08/01 05:40:47;;;;;;;3.85;3.55;;;21.50;74.00;;;;;;5074400;28;20036;-60
2022/08/01 05:43:12;;;;;;;5.43;4.00;;;21.50;74.40;;;;;;5055736;28;20516;-60
2022/08/01 05:45:38;;;;;;;3.88;3.03;;;21.50;74.60;;;;;;5074573;28;20048;-60
2022/08/01 05:48:03;;;;;;;3.70;3.30;;;21.50;74.70;;;;;;5054087;28;20420;-59
2022/08/01 05:50:29;;;;;;;6.03;3.63;;;21.40;75.30;;;;;;5074414;28;20045;-59
2022/08/01 05:52:55;;;;;;;4.82;3.67;;;21.40;76.20;;;;;;5053440;28;20083;-47
2022/08/01 05:55:20;;;;;;;5.82;4.47;;;21.30;76.30;;;;;;5054324;28;20052;-45
2022/08/01 05:57:45;;;;;;;5.50;4.93;;;21.20;77.20;;;;;;5073516;28;20033;-47
2022/08/01 06:00:12;;;;;;;5.75;4.30;;;21.20;77.90;;;;;;5053039;28;20036;-46
2022/08/01 06:02:42;;;;;;;6.90;4.03;;;21.10;78.70;;;;;;5073643;28;20024;-46
2022/08/01 06:05:09;;;;;;;7.07;4.72;;;21.00;79.30;;;;;;5049672;28;20105;-45
2022/08/01 06:07:34;;;;;;;7.72;4.53;;;21.00;80.50;;;;;;5070206;28;20078;-44
2022/08/01 06:10:00;;;;;;;7.80;4.28;;;20.90;80.60;;;;;;5048423;28;20114;-47
2022/08/01 06:12:25;;;;;;;6.38;5.32;;;21.00;81.50;;;;;;5070236;28;20134;-45
2022/08/01 06:14:50;;;;;;;8.38;5.18;;;20.90;82.30;;;;;;5046399;28;20488;-46
2022/08/01 06:17:16;;;;;;;6.68;4.93;;;21.00;83.00;;;;;;5070164;28;20108;-45
2022/08/01 06:19:41;;;;;;;6.72;5.05;;;21.00;82.20;;;;;;5049569;28;20104;-46
2022/08/01 06:22:07;;;;;;;7.60;5.95;;;21.10;84.80;;;;;;5070046;28;20511;-45
2022/08/01 06:24:32;;;;;;;6.63;5.97;;;21.10;84.20;;;;;;5049494;28;20025;-47
2022/08/01 06:26:58;;;;;;;6.38;5.05;;;21.00;85.00;;;;;;5069712;28;20036;-48
2022/08/01 06:29:24;;;;;;;8.45;5.40;;;21.00;85.10;;;;;;5049562;28;20029;-47
2022/08/01 06:31:49;;;;;;;6.97;4.97;;;21.00;85.10;;;;;;5069780;28;20052;-46
2022/08/01 06:34:15;;;;;;;6.13;4.47;;;21.00;85.20;;;;;;5059161;28;20685;-48
2022/08/01 06:36:40;;;;;;;7.63;5.10;;;21.00;88.30;;;;;;5051054;28;20025;-46
2022/08/01 06:39:06;;;;;;;6.53;4.53;;;20.90;88.60;;;;;;5067806;28;20036;-47
2022/08/01 06:41:31;;;;;;;5.20;4.70;;;20.80;90.30;;;;;;5049590;28;20095;-48
2022/08/01 06:43:57;;;;;;;5.28;4.78;;;20.80;91.20;;;;;;5067990;28;20032;-45
2022/08/01 06:46:22;;;;;;;4.53;4.10;;;20.80;90.60;;;;;;5070322;28;20020;-45
2022/08/01 06:48:48;;;;;;;6.35;4.25;;;20.80;91.30;;;;;;5054668;28;20106;-45
2022/08/01 06:51:16;;;;;;;4.50;3.63;;;20.80;91.60;;;;;;5070493;28;20512;-48
2022/08/01 06:53:42;;;;;;;4.88;4.40;;;20.90;90.60;;;;;;5053061;28;20500;-46
2022/08/01 06:56:08;;;;;;;5.55;4.28;;;20.90;91.10;;;;;;5070188;28;20046;-45
2022/08/01 06:58:35;;;;;;;5.28;4.35;;;20.90;91.10;;;;;;5052124;28;20045;-46
2022/08/01 07:01:01;;;;;;;4.60;3.83;;;21.00;90.70;;;;;;5070057;28;20024;-45
2022/08/01 07:03:26;;;;;;;3.97;3.58;;;21.00;90.40;;;;;;5050913;28;20033;-47
2022/08/01 07:05:52;;;;;;;4.68;4.28;;;21.10;90.30;;;;;;5069864;28;20484;-45
2022/08/01 07:08:18;;;;;;;4.97;3.70;;;21.00;90.80;;;;;;5049732;28;20353;-45
2022/08/01 07:10:43;;;;;;;4.70;3.85;;;21.10;90.20;;;;;;5069850;28;20043;-47
2022/08/01 07:13:08;;;;;;;5.60;3.60;;;21.20;90.30;;;;;;5050858;28;20060;-46
2022/08/01 07:15:34;;;;;;;4.45;3.80;;;21.20;90.20;;;;;;5042488;28;20067;-47
2022/08/01 07:18:03;;;;;;;4.05;3.65;;;21.20;90.20;;;;;;5068882;28;20024;-46
2022/08/01 07:20:29;;;;;;;4.32;3.92;;;21.20;89.80;;;;;;5047980;28;20071;-46
2022/08/01 07:22:54;;;;;;;5.75;4.78;;;21.30;89.60;;;;;;5068901;28;20060;-45
2022/08/01 07:25:20;;;;;;;4.13;3.67;;;21.30;90.00;;;;;;5048456;28;20044;-46
2022/08/01 07:27:45;;;;;;;5.13;4.63;;;21.30;89.70;;;;;;5069041;28;20041;-46
2022/08/01 07:30:11;;;;;;;4.10;3.70;;;21.40;89.50;;;;;;5048217;28;20442;-45
2022/08/01 07:32:37;;;;;;;4.45;3.83;;;21.60;87.70;;;;;;5068609;28;20123;-48
2022/08/01 07:35:03;;;;;;;5.07;3.95;;;21.80;86.20;;;;;;5047948;28;20072;-46
2022/08/01 07:37:29;;;;;;;4.97;3.70;;;22.00;84.60;;;;;;5068739;28;20519;-46
2022/08/01 07:39:54;;;;;;;5.10;3.90;;;22.10;83.20;;;;;;5047903;28;20048;-45
2022/08/01 07:42:20;;;;;;;4.85;3.35;;;22.20;82.20;;;;;;5068414;28;20020;-47
2022/08/01 07:44:45;;;;;;;4.07;3.67;;;22.20;81.30;;;;;;5047977;28;20425;-50
2022/08/01 07:47:11;;;;;;;4.70;3.45;;;22.30;80.80;;;;;;5068394;28;20116;-49
2022/08/01 07:49:36;;;;;;;3.42;2.97;;;22.30;80.10;;;;;;5058334;28;20182;-49
2022/08/01 07:52:02;;;;;;;3.42;3.05;;;22.30;79.80;;;;;;5049620;28;20060;-47
2022/08/01 07:54:28;;;;;;;4.28;2.90;;;22.20;79.60;;;;;;5066402;28;20501;-48
2022/08/01 07:56:55;;;;;;;5.70;3.83;;;22.20;79.90;;;;;;5049379;28;20035;-46
2022/08/01 07:59:22;;;;;;;3.97;3.10;;;22.20;80.40;;;;;;5066465;28;20293;-46
2022/08/01 08:01:50;;;;;;;3.63;2.78;;;22.30;80.00;;;;;;5049134;28;20492;-46
2022/08/01 08:04:16;;;;;;;4.57;3.08;;;22.40;78.50;;;;;;5066580;28;20473;-48
2022/08/01 08:06:42;;;;;;;3.85;2.42;;;22.50;77.50;;;;;;5068730;28;20024;-47
2022/08/01 08:09:07;;;;;;;2.83;2.50;;;22.60;76.60;;;;;;5053643;28;20385;-47
2022/08/01 08:11:33;;;;;;;2.88;2.50;;;22.60;76.20;;;;;;5068626;28;20480;-47
2022/08/01 08:13:58;;;;;;;3.92;2.15;;;22.70;75.00;;;;;;5044296;28;20332;-48
2022/08/01 08:16:24;;;;;;;2.40;2.20;;;22.70;74.20;;;;;;5067911;28;20032;-46
2022/08/01 08:18:49;;;;;;;4.30;2.30;;;22.50;74.10;;;;;;5050718;28;20032;-45
2022/08/01 08:21:15;;;;;;;2.58;2.38;;;22.40;74.30;;;;;;5068619;28;20445;-46
2022/08/01 08:26:25;;;;;;;3.00;2.03;;;22.40;74.70;;;;;;5068847;28;20032;-45
2022/08/01 08:28:50;;;;;;;2.97;2.53;;;22.40;74.00;;;;;;5049668;28;20024;-48
2022/08/01 08:31:16;;;;;;;2.85;1.98;;;22.40;73.60;;;;;;5068558;28;20503;-46
2022/08/01 08:33:41;;;;;;;1.83;1.73;;;22.40;72.40;;;;;;5049060;28;20037;-45
2022/08/01 08:36:07;;;;;;;1.92;1.83;;;22.40;71.00;;;;;;5068500;28;20089;-45
2022/08/01 08:38:32;;;;;;;2.55;1.70;;;22.40;69.40;;;;;;5047785;28;20044;-45
2022/08/01 08:40:57;;;;;;;2.10;1.90;;;22.40;70.30;;;;;;5068333;28;20031;-47
2022/08/01 08:43:25;;;;;;;2.83;2.00;;;22.50;70.40;;;;;;5048859;28;20393;-49
2022/08/01 08:45:51;;;;;;;1.70;1.60;;;22.70;69.40;;;;;;5046551;28;20043;-47
2022/08/01 08:48:17;;;;;;;2.63;1.80;;;23.00;67.90;;;;;;5067750;28;20047;-46
2022/08/01 08:50:46;;;;;;;2.08;1.90;;;23.40;65.80;;;;;;5046755;28;20432;-49
2022/08/01 08:53:14;;;;;;;1.90;1.80;;;23.80;62.20;;;;;;5068048;28;20507;-47
2022/08/01 08:55:42;;;;;;;2.30;2.08;;;24.50;59.50;;;;;;5045385;28;20033;-49
2022/08/01 08:58:17;;;;;;;1.73;1.63;;;25.10;56.60;;;;;;5067808;28;20021;-46
2022/08/01 09:00:42;;;;;;;1.70;1.60;;;25.30;52.20;;;;;;5044399;28;20056;-47
2022/08/01 09:03:08;;;;;;;1.88;1.75;;;25.00;49.20;;;;;;5067648;28;20473;-47
2022/08/01 09:05:34;;;;;;;1.67;1.58;;;24.90;53.90;;;;;;5046914;28;20044;-46
2022/08/01 09:07:59;;;;;;;1.98;1.70;;;24.80;53.50;;;;;;5067289;28;20036;-47
2022/08/01 09:10:25;;;;;;;1.80;1.58;;;24.80;52.50;;;;;;5046827;28;20382;-45
2022/08/01 09:13:10;;;;;;;1.63;1.48;;;25.10;51.40;;;;;;5067646;28;20033;-45
2022/08/01 09:15:50;;;;;;;1.55;1.45;;;25.50;46.10;;;;;;5042915;28;20063;-45
2022/08/01 09:18:35;;;;;;;2.33;1.20;;;25.90;47.30;;;;;;5028183;28;20371;-45
2022/08/01 09:21:07;;;;;;;1.27;1.17;;;26.20;39.00;;;;;;5065861;28;20104;-45
2022/08/01 09:23:34;;;;;;;1.20;1.10;;;26.20;41.40;;;;;;5048296;28;20025;-47
2022/08/01 09:26:00;;;;;;;1.20;1.10;;;26.30;44.40;;;;;;5065679;28;20044;-45
2022/08/01 09:28:30;;;;;;;1.20;1.10;;;26.70;41.40;;;;;;5048446;28;20102;-46
2022/08/01 09:30:56;;;;;;;1.00;1.00;;;27.30;43.80;;;;;;5046713;28;20033;-45
2022/08/01 09:33:22;;;;;;;0.85;0.85;;;27.80;43.50;;;;;;5067378;28;20127;-46
2022/08/01 09:35:56;;;;;;;1.02;0.90;;;27.90;42.20;;;;;;5046354;28;20123;-45
2022/08/01 09:38:28;;;;;;;1.30;1.20;;;27.70;38.20;;;;;;5067451;28;20029;-45
2022/08/01 09:40:59;;;;;;;1.30;1.20;;;27.30;38.30;;;;;;5047954;28;20052;-47
2022/08/01 09:43:26;;;;;;;1.73;1.17;;;27.00;38.50;;;;;;5071390;28;20028;-45
2022/08/01 09:45:52;;;;;;;1.30;1.20;;;26.70;38.80;;;;;;5048749;28;20070;-53
2022/08/01 09:48:18;;;;;;;1.30;1.20;;;26.40;36.00;;;;;;5070999;28;20040;-45
2022/08/01 09:50:49;;;;;;;1.60;1.13;;;26.20;35.90;;;;;;5049816;28;20319;-45
2022/08/01 09:53:15;;;;;;;1.40;1.30;;;26.10;36.40;;;;;;5070951;28;20036;-45
2022/08/01 09:55:42;;;;;;;2.33;1.30;;;26.10;36.80;;;;;;5049886;28;20054;-45
2022/08/01 09:58:08;;;;;;;1.98;1.38;;;26.30;36.40;;;;;;5070780;28;20036;-47
2022/08/01 10:00:34;;;;;;;1.25;1.10;;;26.50;35.60;;;;;;5050017;28;20055;-45
2022/08/01 10:03:25;;;;;;;1.02;1.00;;;26.60;35.10;;;;;;5070631;28;20032;-45
2022/08/01 10:05:53;;;;;;;1.70;1.02;;;26.80;33.10;;;;;;5046658;28;20025;-47
2022/08/01 10:08:19;;;;;;;1.10;1.10;;;26.90;33.10;;;;;;5070563;28;20400;-45
2022/08/01 10:11:11;;;;;;;0.90;0.90;;;26.90;32.70;;;;;;5049589;28;20048;-46
2022/08/01 10:13:36;;;;;;;1.10;0.88;;;26.50;30.40;;;;;;5059446;28;20028;-46
2022/08/01 10:16:03;;;;;;;2.97;1.10;;;26.30;33.20;;;;;;5049116;28;20033;-45
2022/08/01 10:18:33;;;;;;;1.00;0.90;;;26.20;33.40;;;;;;5070306;28;20111;-45
2022/08/01 10:21:01;;;;;;;0.98;0.90;;;26.20;33.40;;;;;;5047109;28;20041;-45
2022/08/01 10:23:30;;;;;;;1.25;1.00;;;26.10;33.60;;;;;;5070373;28;20059;-47
2022/08/01 10:25:58;;;;;;;1.30;1.20;;;26.00;33.90;;;;;;5048976;28;20033;-52
2022/08/01 10:28:25;;;;;;;1.90;1.33;;;25.80;34.60;;;;;;5070287;28;20073;-46
2022/08/01 10:30:51;;;;;;;2.45;1.10;;;25.60;35.50;;;;;;5049144;28;20672;-45
2022/08/01 10:33:17;;;;;;;1.20;1.10;;;25.60;36.00;;;;;;5070044;28;20035;-46
2022/08/01 10:35:45;;;;;;;1.23;1.13;;;25.50;36.00;;;;;;5049183;28;20040;-45
2022/08/01 10:38:11;;;;;;;1.08;1.00;;;25.50;35.90;;;;;;5070307;28;20029;-46
2022/08/01 10:40:38;;;;;;;3.10;0.90;;;25.50;35.50;;;;;;5049040;28;20021;-45
2022/08/01 10:43:03;;;;;;;1.85;0.90;;;25.60;35.30;;;;;;5069790;28;20036;-48
2022/08/01 10:45:30;;;;;;;0.80;0.80;;;25.70;36.20;;;;;;5049205;28;20665;-46
2022/08/01 10:48:29;;;;;;;1.85;1.10;;;25.60;35.00;;;;;;5069819;28;20040;-45
2022/08/01 10:50:59;;;;;;;1.20;1.10;;;25.50;33.40;;;;;;5044273;28;20059;-46
2022/08/01 10:53:27;;;;;;;1.20;1.10;;;25.30;34.50;;;;;;5070139;28;20036;-45
2022/08/01 10:55:55;;;;;;;1.50;1.02;;;25.30;34.30;;;;;;5048736;28;20246;-47
2022/08/01 10:58:21;;;;;;;1.50;1.40;;;25.20;34.60;;;;;;5069476;28;20102;-45
2022/08/01 11:00:47;;;;;;;1.45;1.23;;;25.10;34.80;;;;;;5048710;28;20025;-45
2022/08/01 11:03:12;;;;;;;1.15;1.05;;;25.00;34.90;;;;;;5069268;28;20619;-45
2022/08/01 11:05:41;;;;;;;2.45;1.25;;;25.00;35.00;;;;;;5048782;28;20436;-45
2022/08/01 11:08:21;;;;;;;1.67;1.10;;;25.10;34.70;;;;;;5069480;28;20037;-47
2022/08/01 11:10:47;;;;;;;0.93;0.80;;;25.20;34.20;;;;;;5043038;28;20378;-46
2022/08/01 11:13:13;;;;;;;1.15;1.05;;;25.40;34.10;;;;;;5064597;28;20110;-45
2022/08/01 11:15:40;;;;;;;1.30;0.98;;;25.40;33.80;;;;;;5048079;28;20064;-47
2022/08/01 11:18:27;;;;;;;0.85;0.85;;;25.50;33.60;;;;;;5069207;28;20044;-45
2022/08/01 11:20:57;;;;;;;0.50;0.50;;;25.70;32.90;;;;;;5048412;28;20465;-46
2022/08/01 11:23:24;;;;;;;1.33;0.90;;;25.80;32.00;;;;;;5069210;28;20497;-47
2022/08/01 11:25:49;;;;;;;0.80;0.80;;;26.00;32.10;;;;;;5048346;28;20029;-45
2022/08/01 11:28:18;;;;;;;1.20;1.10;;;26.10;31.70;;;;;;5068624;28;20040;-48
2022/08/01 11:30:49;;;;;;;0.98;0.85;;;26.10;31.90;;;;;;5047856;28;20025;-45
2022/08/01 11:33:16;;;;;;;1.80;0.90;;;26.20;31.50;;;;;;5069050;28;20426;-45
2022/08/01 11:36:10;;;;;;;1.15;1.10;;;26.10;32.10;;;;;;5046548;28;20393;-47
2022/08/01 11:38:36;;;;;;;1.50;1.30;;;25.80;32.30;;;;;;5068639;28;20035;-47
2022/08/01 11:41:23;;;;;;;0.90;0.90;;;25.70;33.10;;;;;;5047916;28;20025;-48
2022/08/01 11:44:09;;;;;;;1.17;1.08;;;25.40;34.40;;;;;;5029322;28;20029;-48
2022/08/01 11:46:56;;;;;;;1.17;1.00;;;25.10;35.50;;;;;;5029164;28;20025;-47
2022/08/01 11:49:28;;;;;;;0.98;0.90;;;25.00;36.30;;;;;;5060082;28;20044;-45
2022/08/01 11:52:01;;;;;;;2.35;1.10;;;25.00;36.10;;;;;;5049090;28;20516;-48
2022/08/01 11:54:29;;;;;;;1.02;0.90;;;25.00;36.50;;;;;;5066959;28;20016;-60
2022/08/01 11:56:59;;;;;;;0.90;0.90;;;24.80;36.70;;;;;;5068955;28;20055;-46
2022/08/01 11:59:25;;;;;;;1.00;1.00;;;24.80;37.60;;;;;;5049143;28;20113;-46
2022/08/01 12:01:50;;;;;;;1.50;1.30;;;24.70;38.20;;;;;;5068633;28;20074;-49
2022/08/01 12:04:16;;;;;;;1.35;1.25;;;24.60;38.70;;;;;;5047634;28;20033;-45
2022/08/01 12:06:41;;;;;;;1.40;1.30;;;24.70;38.50;;;;;;5068703;28;20029;-45
2022/08/01 12:09:19;;;;;;;0.98;0.80;;;24.90;38.40;;;;;;5049182;28;20049;-45
2022/08/01 12:11:45;;;;;;;0.73;0.73;;;25.00;39.10;;;;;;5061717;28;20035;-46
2022/08/01 12:14:16;;;;;;;1.63;1.00;;;25.00;38.40;;;;;;5049108;28;20033;-45
2022/08/01 12:16:53;;;;;;;0.63;0.60;;;25.10;38.60;;;;;;5037896;28;20025;-48
2022/08/01 12:19:23;;;;;;;0.68;0.52;;;25.10;37.10;;;;;;5028676;28;20033;-46
2022/08/01 12:22:12;;;;;;;0.50;0.50;;;24.90;36.90;;;;;;5042055;28;20066;-45
2022/08/01 12:24:39;;;;;;;1.38;0.32;;;24.80;37.40;;;;;;5068121;28;20043;-45
2022/08/01 12:27:06;;;;;;;2.10;0.50;;;24.80;37.50;;;;;;5046760;28;20425;-49
2022/08/01 12:29:37;;;;;;;0.30;0.30;;;24.90;37.10;;;;;;5067948;28;20512;-46
2022/08/01 12:32:03;;;;;;;0.43;0.32;;;25.00;36.70;;;;;;5046769;28;20033;-48
2022/08/01 12:34:29;;;;;;;0.40;0.40;;;25.10;36.50;;;;;;5067636;28;20025;-46
2022/08/01 12:37:00;;;;;;;1.23;0.60;;;25.20;36.50;;;;;;5046926;28;20104;-48
2022/08/01 12:39:33;;;;;;;1.40;0.50;;;25.20;36.60;;;;;;5067980;28;20020;-47
2022/08/01 12:41:59;;;;;;;0.77;0.50;;;25.40;36.30;;;;;;5046500;28;20052;-47
2022/08/01 12:44:29;;;;;;;0.40;0.40;;;25.60;36.10;;;;;;5067521;28;20693;-45
2022/08/01 12:46:55;;;;;;;0.60;0.60;;;25.80;35.70;;;;;;5041792;28;20029;-45
2022/08/01 12:49:21;;;;;;;0.50;0.50;;;25.90;35.40;;;;;;5061888;28;20087;-46
2022/08/01 12:51:47;;;;;;;1.52;0.70;;;25.90;34.90;;;;;;5060688;28;20044;-45
2022/08/01 12:54:13;;;;;;;0.80;0.65;;;26.00;35.00;;;;;;5047208;28;20102;-46
2022/08/01 12:56:38;;;;;;;0.88;0.60;;;26.00;35.00;;;;;;5052870;28;20485;-47
2022/08/01 12:59:24;;;;;;;2.10;0.70;;;25.90;33.90;;;;;;5067434;28;20497;-47